York, South Carolina
Current Conditions -  °F | °C
As of 3:10 AM on Saturday 25 Oct 2014 (Local Time) from KUZA Reporting Station
Clear Clear  
Wind Chill: 37°   Ceiling: Unl
Heat Index: 40°   Visibility: 7mi
Dew Point: 38°   Wind: 5mph
Humidity: 93%   Direction: 320°NW
Pressure: 30.01"   Gusts: NA
Location:  34.99°N, 81.24°W
Report Text: KUZA 250710Z AUTO 32004KT 7SM CLR 04/03 A3001 RMK AO2 T00440033
Loading
Personal Weather Stations






























Interactive Weather Map
Tropical Storm Tracking
New forecast layout! Learn more

10-Day Weather Forecast

Advertisements
Track Severe Weather on mobile